Time;durP1;ratioP1;P1;durP2;ratioP2;P2;SDS_P1;SDS_P2;PMS_P1;PMS_P2;Temp;Humidity;BMP_temperature;BMP_pressure;BME280_temperature;BME280_humidity;BME280_pressure;Samples;Min_cycle;Max_cycle;Signal;HPM_P1;HPM_P2
2021/08/22 00:01:13;;;;;;;9.43;6.97;;;19.90;63.70;;;;;;5050875;28;20070;-64
2021/08/22 00:03:39;;;;;;;9.38;7.10;;;19.90;63.80;;;;;;5050672;28;20029;-63
2021/08/22 00:06:04;;;;;;;10.55;7.28;;;19.90;64.00;;;;;;5050789;28;20100;-64
2021/08/22 00:08:30;;;;;;;11.35;6.93;;;19.90;64.20;;;;;;5050770;28;20472;-64
2021/08/22 00:10:55;;;;;;;9.80;6.93;;;19.90;64.10;;;;;;5050807;28;20025;-64
2021/08/22 00:13:22;;;;;;;9.60;6.75;;;19.80;64.20;;;;;;5051040;28;20396;-64
2021/08/22 00:15:48;;;;;;;9.55;7.03;;;19.80;64.50;;;;;;5050907;28;20020;-63
2021/08/22 00:18:14;;;;;;;11.00;7.72;;;19.80;64.70;;;;;;5050977;28;20028;-64
2021/08/22 00:20:40;;;;;;;10.48;7.13;;;19.80;65.00;;;;;;5051053;28;20396;-64
2021/08/22 00:23:06;;;;;;;10.68;7.50;;;19.70;64.80;;;;;;5052924;28;20040;-64
2021/08/22 00:25:32;;;;;;;10.35;7.70;;;19.70;65.60;;;;;;5054083;28;20029;-64
2021/08/22 00:27:58;;;;;;;9.88;7.50;;;19.70;65.90;;;;;;5054109;28;20479;-63
2021/08/22 00:30:24;;;;;;;10.55;7.13;;;19.70;66.10;;;;;;5053990;28;20060;-63
2021/08/22 00:32:49;;;;;;;8.95;7.00;;;19.60;66.00;;;;;;5053901;28;20468;-63
2021/08/22 00:35:16;;;;;;;8.63;6.43;;;19.60;66.00;;;;;;5053946;28;20029;-65
2021/08/22 00:37:42;;;;;;;9.75;6.60;;;19.60;65.90;;;;;;5053949;28;20036;-64
2021/08/22 00:40:09;;;;;;;8.88;6.50;;;19.60;66.40;;;;;;5053911;28;20017;-63
2021/08/22 00:42:36;;;;;;;9.60;7.53;;;19.70;66.40;;;;;;5053859;28;20033;-64
2021/08/22 00:45:03;;;;;;;9.95;7.53;;;19.70;66.70;;;;;;5053771;28;20021;-63
2021/08/22 00:47:29;;;;;;;9.50;7.68;;;19.70;66.70;;;;;;5053651;28;20552;-64
2021/08/22 00:49:55;;;;;;;9.65;7.10;;;19.80;66.80;;;;;;5053604;28;20037;-65
2021/08/22 00:52:21;;;;;;;9.50;7.97;;;19.80;66.70;;;;;;5053641;28;20041;-64
2021/08/22 00:54:46;;;;;;;9.90;7.63;;;19.70;66.90;;;;;;5053372;28;20060;-63
2021/08/22 00:57:14;;;;;;;9.18;6.85;;;19.70;67.00;;;;;;5053470;28;20021;-63
2021/08/22 00:59:40;;;;;;;10.80;8.07;;;19.70;67.10;;;;;;5053385;28;20025;-63
2021/08/22 01:02:14;;;;;;;9.50;7.53;;;19.70;67.50;;;;;;5053413;28;20075;-64
2021/08/22 01:04:51;;;;;;;9.73;7.25;;;19.70;67.60;;;;;;5053428;28;20025;-64
2021/08/22 01:07:38;;;;;;;10.38;7.82;;;19.60;67.40;;;;;;5053460;28;20040;-64
2021/08/22 01:10:07;;;;;;;9.38;7.60;;;19.60;67.70;;;;;;5053382;28;20028;-64
2021/08/22 01:12:39;;;;;;;11.48;8.23;;;19.60;67.70;;;;;;5053097;28;20028;-64
2021/08/22 01:15:07;;;;;;;10.35;7.80;;;19.60;67.80;;;;;;5053180;28;20025;-64
2021/08/22 01:17:36;;;;;;;11.95;7.82;;;19.60;67.80;;;;;;5052925;28;20044;-64
2021/08/22 01:20:05;;;;;;;9.90;7.60;;;19.60;67.80;;;;;;5053072;28;20021;-63
2021/08/22 01:22:34;;;;;;;10.15;7.70;;;19.70;67.90;;;;;;5052868;28;20017;-64
2021/08/22 01:25:03;;;;;;;9.43;7.25;;;19.60;68.00;;;;;;5052865;28;20025;-64
2021/08/22 01:27:30;;;;;;;9.48;6.93;;;19.60;68.00;;;;;;5052989;28;20029;-63
2021/08/22 01:30:04;;;;;;;9.57;6.63;;;19.60;67.90;;;;;;5052975;28;20028;-63
2021/08/22 01:32:44;;;;;;;9.32;6.70;;;19.60;67.80;;;;;;5052416;28;20502;-64
2021/08/22 01:35:13;;;;;;;9.05;6.50;;;19.60;67.80;;;;;;5052830;28;20033;-64
2021/08/22 01:37:40;;;;;;;8.35;6.32;;;19.70;67.60;;;;;;5052902;28;20109;-64
2021/08/22 01:40:09;;;;;;;8.45;6.55;;;19.70;67.50;;;;;;5052701;28;20539;-64
2021/08/22 01:42:37;;;;;;;8.55;6.28;;;19.80;67.50;;;;;;5052839;28;20025;-64
2021/08/22 01:45:04;;;;;;;9.43;6.30;;;19.70;67.40;;;;;;5052844;28;20418;-64
2021/08/22 01:47:31;;;;;;;8.43;6.90;;;19.70;67.30;;;;;;5052848;28;20032;-64
2021/08/22 01:49:57;;;;;;;9.43;6.78;;;19.70;67.60;;;;;;5053074;28;20076;-64
2021/08/22 01:52:23;;;;;;;9.40;7.28;;;19.70;67.70;;;;;;5052661;28;20056;-64
2021/08/22 01:54:49;;;;;;;9.68;7.28;;;19.70;68.00;;;;;;5052354;28;20045;-63
2021/08/22 01:57:15;;;;;;;8.75;7.03;;;19.60;68.10;;;;;;5052343;28;20025;-63
2021/08/22 01:59:41;;;;;;;10.45;7.90;;;19.50;68.10;;;;;;5052374;28;20461;-64
2021/08/22 02:02:06;;;;;;;9.88;7.47;;;19.50;68.40;;;;;;5050888;28;20071;-64
2021/08/22 02:04:35;;;;;;;10.98;7.93;;;19.40;68.60;;;;;;5052299;28;20025;-64
2021/08/22 02:07:12;;;;;;;10.27;7.90;;;19.40;69.70;;;;;;5052290;28;20079;-64
2021/08/22 02:09:52;;;;;;;10.13;8.00;;;19.30;69.20;;;;;;5052122;28;20075;-64
2021/08/22 02:12:20;;;;;;;9.77;7.82;;;19.30;69.80;;;;;;5050838;28;20033;-64
2021/08/22 02:15:06;;;;;;;11.93;9.02;;;19.20;69.60;;;;;;5051904;28;20071;-64
2021/08/22 02:17:35;;;;;;;15.43;10.73;;;19.10;70.00;;;;;;5051971;28;20029;-64
2021/08/22 02:20:05;;;;;;;13.93;10.30;;;19.10;70.00;;;;;;5052185;28;20025;-64
2021/08/22 02:22:34;;;;;;;16.13;10.07;;;19.10;70.00;;;;;;5052123;28;20035;-64
2021/08/22 02:25:01;;;;;;;15.10;9.82;;;19.10;70.20;;;;;;5051748;28;20025;-64
2021/08/22 02:27:30;;;;;;;12.15;8.80;;;19.10;70.00;;;;;;5051916;28;20033;-64
2021/08/22 02:29:56;;;;;;;13.27;8.55;;;19.00;69.80;;;;;;5051858;28;20028;-64
2021/08/22 02:32:23;;;;;;;15.75;10.90;;;19.10;70.00;;;;;;5051553;28;20526;-65
2021/08/22 02:34:50;;;;;;;16.05;10.55;;;19.10;70.20;;;;;;5051867;28;20095;-63
2021/08/22 02:37:16;;;;;;;13.77;10.30;;;19.10;70.20;;;;;;5051753;28;20025;-64
2021/08/22 02:39:43;;;;;;;15.98;10.75;;;19.10;70.40;;;;;;5051496;28;20082;-65
2021/08/22 02:42:09;;;;;;;15.40;10.55;;;19.10;70.40;;;;;;5051761;28;20032;-64
2021/08/22 02:44:35;;;;;;;14.48;9.93;;;19.10;70.80;;;;;;5050978;28;20021;-63
2021/08/22 02:47:00;;;;;;;14.82;10.13;;;19.10;70.70;;;;;;5051704;28;20025;-63
2021/08/22 02:49:26;;;;;;;12.27;9.02;;;19.10;70.80;;;;;;5052129;28;20099;-65
2021/08/22 02:51:52;;;;;;;10.43;7.60;;;19.10;70.80;;;;;;5051520;28;20113;-63
2021/08/22 02:54:17;;;;;;;10.55;6.97;;;19.10;70.60;;;;;;5051156;28;20498;-64
2021/08/22 02:56:43;;;;;;;9.90;7.43;;;19.10;70.60;;;;;;5050118;28;20033;-64
2021/08/22 02:59:09;;;;;;;8.48;6.85;;;19.10;70.70;;;;;;5051398;28;20025;-64
2021/08/22 03:01:34;;;;;;;8.75;6.53;;;19.10;70.70;;;;;;5051359;28;20036;-64
2021/08/22 03:04:00;;;;;;;9.45;7.03;;;19.20;70.60;;;;;;5049968;28;20025;-64
2021/08/22 03:06:26;;;;;;;8.68;6.65;;;19.20;70.60;;;;;;5051308;28;20560;-65
2021/08/22 03:08:51;;;;;;;8.55;6.38;;;19.20;70.70;;;;;;5051274;28;20508;-64
2021/08/22 03:11:20;;;;;;;9.40;7.28;;;19.20;70.60;;;;;;5051215;28;20049;-63
2021/08/22 03:13:47;;;;;;;9.70;7.10;;;19.20;70.60;;;;;;5051182;28;20048;-65
2021/08/22 03:16:13;;;;;;;9.65;7.20;;;19.20;70.60;;;;;;5051260;28;20033;-63
2021/08/22 03:18:39;;;;;;;9.02;6.60;;;19.20;70.90;;;;;;5051056;28;20021;-63
2021/08/22 03:21:04;;;;;;;10.85;7.43;;;19.20;70.90;;;;;;5051045;28;20460;-63
2021/08/22 03:23:30;;;;;;;10.30;7.25;;;19.20;71.20;;;;;;5051012;28;20033;-64
2021/08/22 03:25:56;;;;;;;9.50;6.60;;;19.20;71.20;;;;;;5051158;28;20108;-63
2021/08/22 03:28:21;;;;;;;9.32;7.22;;;19.20;71.40;;;;;;5049925;28;20040;-63
2021/08/22 03:30:51;;;;;;;9.75;7.10;;;19.10;71.40;;;;;;5051223;28;20025;-64
2021/08/22 03:33:17;;;;;;;8.85;6.63;;;19.10;71.60;;;;;;5050796;28;20087;-64
2021/08/22 03:35:42;;;;;;;9.00;6.60;;;19.10;71.60;;;;;;5051070;28;20025;-64
2021/08/22 03:38:08;;;;;;;9.40;7.40;;;19.10;72.00;;;;;;5050843;28;20484;-64
2021/08/22 03:40:34;;;;;;;9.65;6.97;;;19.20;72.30;;;;;;5051197;28;20492;-64
2021/08/22 03:42:59;;;;;;;8.82;6.93;;;19.20;72.10;;;;;;5051539;28;20032;-65
2021/08/22 03:45:25;;;;;;;8.30;6.60;;;19.10;72.20;;;;;;5050763;28;20021;-64
2021/08/22 03:47:51;;;;;;;8.98;6.95;;;19.10;72.50;;;;;;5050863;28;20021;-64
2021/08/22 03:50:16;;;;;;;8.75;6.93;;;19.10;72.70;;;;;;5051026;28;20033;-66
2021/08/22 03:52:42;;;;;;;9.45;7.07;;;19.10;73.20;;;;;;5050797;28;20048;-64
2021/08/22 03:55:08;;;;;;;8.52;6.63;;;19.00;73.20;;;;;;5050740;28;20056;-64
2021/08/22 03:57:33;;;;;;;9.57;6.78;;;19.00;73.20;;;;;;5054032;28;20028;-64
2021/08/22 03:59:59;;;;;;;8.95;6.75;;;19.00;73.30;;;;;;5054520;28;20060;-63
2021/08/22 04:02:25;;;;;;;8.23;6.30;;;18.90;73.30;;;;;;5053472;28;20490;-64
2021/08/22 04:04:51;;;;;;;8.70;6.97;;;18.90;73.50;;;;;;5054461;28;20028;-64
2021/08/22 04:07:16;;;;;;;8.90;7.03;;;18.90;73.50;;;;;;5054219;28;20028;-64
2021/08/22 04:09:42;;;;;;;8.07;6.13;;;18.90;74.00;;;;;;5054532;28;20468;-64
2021/08/22 04:12:09;;;;;;;9.00;7.10;;;18.90;74.00;;;;;;5054379;28;20134;-63
2021/08/22 04:14:34;;;;;;;9.93;7.63;;;18.90;74.00;;;;;;5054365;28;20534;-64
2021/08/22 04:17:00;;;;;;;10.85;8.05;;;19.00;74.10;;;;;;5054265;28;20028;-64
2021/08/22 04:19:26;;;;;;;9.93;7.50;;;19.00;74.00;;;;;;5054145;28;20102;-65
2021/08/22 04:21:52;;;;;;;8.90;6.85;;;19.10;74.10;;;;;;5054415;28;20029;-64
2021/08/22 04:24:17;;;;;;;8.90;6.78;;;19.10;74.10;;;;;;5054660;28;20087;-64
2021/08/22 04:26:43;;;;;;;9.80;7.00;;;19.10;74.30;;;;;;5053983;28;20017;-65
2021/08/22 04:29:09;;;;;;;7.88;6.30;;;19.20;74.30;;;;;;5052997;28;20083;-65
2021/08/22 04:31:36;;;;;;;8.15;6.18;;;19.10;74.20;;;;;;5052784;28;20025;-65
2021/08/22 04:34:01;;;;;;;7.88;6.35;;;19.10;74.00;;;;;;5053826;28;20028;-63
2021/08/22 04:36:27;;;;;;;8.18;5.75;;;19.10;74.00;;;;;;5053741;28;20025;-64
2021/08/22 04:38:53;;;;;;;8.05;6.35;;;19.10;74.10;;;;;;5053932;28;20017;-64
2021/08/22 04:41:20;;;;;;;8.55;5.88;;;19.10;74.20;;;;;;5053893;28;20468;-64
2021/08/22 04:43:46;;;;;;;8.95;7.03;;;19.00;74.10;;;;;;5052494;28;20448;-64
2021/08/22 04:46:13;;;;;;;8.82;6.72;;;19.10;74.30;;;;;;5053702;28;20496;-64
2021/08/22 04:48:39;;;;;;;8.70;6.68;;;19.00;74.20;;;;;;5052358;28;20425;-65
2021/08/22 04:51:05;;;;;;;9.82;7.10;;;19.10;74.20;;;;;;5053676;28;20025;-64
2021/08/22 04:53:32;;;;;;;8.95;6.35;;;19.10;74.30;;;;;;5053480;28;20060;-64
2021/08/22 04:55:58;;;;;;;9.40;6.40;;;19.10;74.10;;;;;;5053844;28;20028;-64
2021/08/22 04:58:23;;;;;;;9.15;6.43;;;19.00;74.10;;;;;;5053587;28;20432;-65
2021/08/22 05:00:49;;;;;;;8.88;6.63;;;19.00;74.20;;;;;;5053662;28;20380;-64
2021/08/22 05:03:15;;;;;;;8.95;6.60;;;19.00;74.50;;;;;;5053321;28;20380;-64
2021/08/22 05:05:40;;;;;;;8.82;6.68;;;19.00;74.60;;;;;;5053289;28;20025;-64
2021/08/22 05:08:06;;;;;;;8.05;6.22;;;19.00;74.70;;;;;;5052534;28;20037;-64
2021/08/22 05:10:32;;;;;;;8.45;6.10;;;19.00;74.70;;;;;;5053417;28;20583;-64
2021/08/22 05:12:57;;;;;;;8.32;6.07;;;19.10;74.50;;;;;;5052053;28;20427;-65
2021/08/22 05:15:23;;;;;;;8.20;6.35;;;19.10;74.40;;;;;;5053494;28;20539;-64
2021/08/22 05:17:49;;;;;;;8.05;6.32;;;19.10;74.30;;;;;;5053112;28;20468;-65
2021/08/22 05:20:14;;;;;;;9.60;6.40;;;19.20;74.20;;;;;;5053046;28;20479;-65
2021/08/22 05:22:40;;;;;;;8.18;5.90;;;19.20;74.00;;;;;;5052931;28;20024;-65
2021/08/22 05:25:06;;;;;;;8.23;6.30;;;19.30;74.00;;;;;;5052920;28;20123;-64
2021/08/22 05:27:32;;;;;;;8.95;6.30;;;19.40;73.80;;;;;;5053087;28;20021;-64
2021/08/22 05:29:58;;;;;;;8.45;6.38;;;19.40;73.50;;;;;;5052948;28;20048;-65
2021/08/22 05:32:24;;;;;;;8.00;5.85;;;19.50;73.40;;;;;;5052766;28;20541;-64
2021/08/22 05:34:49;;;;;;;8.77;6.47;;;19.60;73.20;;;;;;5053023;28;20032;-64
2021/08/22 05:37:15;;;;;;;7.78;5.90;;;19.60;73.00;;;;;;5052865;28;20419;-64
2021/08/22 05:39:41;;;;;;;7.88;5.95;;;19.70;73.00;;;;;;5052847;28;20021;-64
2021/08/22 05:42:08;;;;;;;7.50;5.40;;;19.70;72.90;;;;;;5052574;28;20021;-65
2021/08/22 05:44:34;;;;;;;7.60;5.57;;;19.80;72.70;;;;;;5052836;28;20051;-65
2021/08/22 05:47:00;;;;;;;8.00;5.60;;;19.90;72.60;;;;;;5052681;28;20021;-65
2021/08/22 05:49:26;;;;;;;7.30;5.28;;;20.00;72.30;;;;;;5052659;28;20048;-65
2021/08/22 05:51:51;;;;;;;9.20;5.72;;;20.20;72.00;;;;;;5052337;28;20048;-65
2021/08/22 05:54:17;;;;;;;6.93;5.05;;;20.20;71.40;;;;;;5052165;28;20053;-64
2021/08/22 05:56:43;;;;;;;9.10;5.28;;;20.30;71.10;;;;;;5052273;28;20025;-64
2021/08/22 05:59:08;;;;;;;7.28;5.20;;;20.30;70.90;;;;;;5053254;28;20025;-65
2021/08/22 06:01:35;;;;;;;6.72;4.75;;;20.40;70.60;;;;;;5052288;28;20532;-65
2021/08/22 06:04:00;;;;;;;6.45;4.75;;;20.40;70.30;;;;;;5052167;28;20388;-65
2021/08/22 06:06:26;;;;;;;6.88;5.13;;;20.50;70.10;;;;;;5050884;28;20024;-65
2021/08/22 06:08:52;;;;;;;6.60;5.00;;;20.50;70.00;;;;;;5052251;28;20025;-65
2021/08/22 06:11:17;;;;;;;7.07;5.00;;;20.50;69.90;;;;;;5052016;28;20021;-65
2021/08/22 06:13:43;;;;;;;7.53;4.60;;;20.60;69.90;;;;;;5052080;28;20017;-65
2021/08/22 06:16:09;;;;;;;6.75;4.65;;;20.60;69.60;;;;;;5051749;28;20387;-65
2021/08/22 06:18:34;;;;;;;6.90;4.63;;;20.60;69.50;;;;;;5051954;28;20472;-65
2021/08/22 06:21:00;;;;;;;7.68;5.00;;;20.70;69.50;;;;;;5051219;28;20530;-65
2021/08/22 06:23:26;;;;;;;6.53;4.93;;;20.70;69.20;;;;;;5051961;28;20467;-64
2021/08/22 06:25:51;;;;;;;6.75;4.82;;;20.80;69.00;;;;;;5051794;28;20036;-65
2021/08/22 06:28:17;;;;;;;6.80;4.97;;;20.90;68.80;;;;;;5051749;28;20032;-65
2021/08/22 06:30:43;;;;;;;7.35;5.35;;;21.00;68.60;;;;;;5051892;28;20055;-64
2021/08/22 06:33:10;;;;;;;6.82;5.03;;;21.00;68.20;;;;;;5051680;28;20108;-64
2021/08/22 06:35:35;;;;;;;7.15;5.07;;;21.10;68.10;;;;;;5051788;28;20388;-65
2021/08/22 06:38:01;;;;;;;7.10;5.03;;;21.10;68.00;;;;;;5051594;28;20025;-64
2021/08/22 06:40:27;;;;;;;8.50;4.90;;;21.20;67.80;;;;;;5052086;28;20571;-65
2021/08/22 06:42:53;;;;;;;6.13;4.25;;;21.20;67.30;;;;;;5051927;28;20458;-64
2021/08/22 06:45:18;;;;;;;5.63;3.90;;;21.30;67.40;;;;;;5051699;28;20480;-65
2021/08/22 06:47:46;;;;;;;6.35;4.00;;;21.40;67.40;;;;;;5051520;28;20044;-65
2021/08/22 06:50:12;;;;;;;6.00;4.18;;;21.50;67.00;;;;;;5051849;28;20122;-65
2021/08/22 06:52:38;;;;;;;5.95;3.35;;;21.70;66.40;;;;;;5051436;28;20488;-65
2021/08/22 06:55:04;;;;;;;5.35;3.45;;;21.80;66.40;;;;;;5051421;28;20091;-65
2021/08/22 06:57:30;;;;;;;5.57;3.67;;;21.90;66.20;;;;;;5051336;28;20029;-64
2021/08/22 06:59:57;;;;;;;6.10;4.20;;;22.00;65.50;;;;;;5051375;28;20520;-64
2021/08/22 07:02:22;;;;;;;6.38;3.70;;;22.00;65.00;;;;;;5051221;28;20025;-65
2021/08/22 07:04:48;;;;;;;6.53;4.18;;;22.10;64.90;;;;;;5051183;28;20024;-65
2021/08/22 07:07:14;;;;;;;6.82;4.00;;;22.10;64.70;;;;;;5051554;28;20175;-64
2021/08/22 07:09:39;;;;;;;5.28;3.65;;;22.10;64.60;;;;;;5051205;28;20032;-64
2021/08/22 07:12:05;;;;;;;6.30;4.10;;;22.20;65.10;;;;;;5051222;28;20029;-64
2021/08/22 07:14:31;;;;;;;6.13;3.90;;;22.30;64.10;;;;;;5049724;28;20480;-65
2021/08/22 07:16:57;;;;;;;5.80;3.70;;;22.40;63.90;;;;;;5051128;28;20025;-64
2021/08/22 07:19:22;;;;;;;5.93;3.72;;;22.30;63.50;;;;;;5051303;28;20441;-65
2021/08/22 07:21:48;;;;;;;6.20;3.28;;;22.30;63.10;;;;;;5053010;28;20044;-65
2021/08/22 07:24:14;;;;;;;5.65;3.20;;;22.20;63.20;;;;;;5050620;28;20029;-66
2021/08/22 07:26:39;;;;;;;5.03;3.20;;;22.10;63.50;;;;;;5051543;28;20369;-64
2021/08/22 07:29:05;;;;;;;5.00;3.20;;;22.10;63.60;;;;;;5051285;28;20059;-65
2021/08/22 07:31:31;;;;;;;6.20;3.60;;;22.20;63.20;;;;;;5052844;28;20082;-65
2021/08/22 07:33:57;;;;;;;5.57;3.50;;;22.30;62.70;;;;;;5055030;28;20032;-64
2021/08/22 07:36:23;;;;;;;4.85;3.28;;;22.40;63.00;;;;;;5055219;28;20025;-65
2021/08/22 07:38:49;;;;;;;5.47;3.15;;;22.50;62.40;;;;;;5053887;28;20035;-66
2021/08/22 07:41:14;;;;;;;5.05;3.20;;;22.60;63.10;;;;;;5055064;28;20079;-65
2021/08/22 07:43:40;;;;;;;4.78;3.00;;;22.80;61.90;;;;;;5054817;28;20025;-65
2021/08/22 07:46:06;;;;;;;4.53;2.60;;;22.90;61.40;;;;;;5054828;28;20049;-64
2021/08/22 07:48:31;;;;;;;4.20;2.50;;;23.10;61.30;;;;;;5054881;28;20079;-64
2021/08/22 07:50:57;;;;;;;5.72;2.92;;;23.30;61.20;;;;;;5054885;28;20037;-65
2021/08/22 07:53:22;;;;;;;4.55;2.60;;;23.50;59.40;;;;;;5053387;28;20103;-65
2021/08/22 07:55:48;;;;;;;5.80;2.88;;;23.70;58.60;;;;;;5054730;28;20100;-65
2021/08/22 07:58:14;;;;;;;6.20;3.75;;;23.90;57.90;;;;;;5054503;28;20498;-65
2021/08/22 08:00:39;;;;;;;7.05;4.05;;;24.10;57.10;;;;;;5054598;28;20025;-67
2021/08/22 08:03:05;;;;;;;8.05;4.85;;;24.30;57.10;;;;;;5053402;28;20028;-65
2021/08/22 08:05:31;;;;;;;6.60;3.80;;;24.50;55.90;;;;;;5054842;28;20033;-66
2021/08/22 08:07:57;;;;;;;6.05;3.30;;;24.80;55.90;;;;;;5054654;28;20448;-65
2021/08/22 08:10:24;;;;;;;4.85;2.47;;;25.00;56.50;;;;;;5054349;28;20116;-65
2021/08/22 08:12:50;;;;;;;4.70;2.55;;;25.40;55.60;;;;;;5054264;28;20103;-66
2021/08/22 08:15:16;;;;;;;4.28;2.20;;;25.70;53.00;;;;;;5052891;28;20033;-65
2021/08/22 08:17:41;;;;;;;5.00;2.30;;;25.90;52.80;;;;;;5054172;28;20085;-66
2021/08/22 08:20:08;;;;;;;4.00;1.70;;;26.10;51.20;;;;;;5053983;28;20056;-64
2021/08/22 08:22:33;;;;;;;4.32;1.98;;;26.20;50.90;;;;;;5054072;28;20025;-65
2021/08/22 08:24:59;;;;;;;3.78;1.80;;;26.50;50.90;;;;;;5053984;28;20551;-67
2021/08/22 08:27:25;;;;;;;3.88;1.70;;;26.80;50.20;;;;;;5053987;28;20071;-65
2021/08/22 08:29:51;;;;;;;4.78;2.30;;;27.00;50.50;;;;;;5053931;28;20061;-66
2021/08/22 08:32:17;;;;;;;8.65;3.95;;;27.30;49.30;;;;;;5053837;28;20120;-65
2021/08/22 08:34:42;;;;;;;5.72;2.90;;;27.60;47.10;;;;;;5053722;28;20025;-65
2021/08/22 08:37:08;;;;;;;5.68;2.72;;;27.60;47.70;;;;;;5053758;28;20082;-65
2021/08/22 08:39:34;;;;;;;5.40;2.70;;;27.80;47.40;;;;;;5053051;28;20100;-65
2021/08/22 08:42:18;;;;;;;5.90;2.70;;;27.90;47.40;;;;;;5053468;28;20028;-66
2021/08/22 08:44:44;;;;;;;4.38;2.00;;;28.20;45.20;;;;;;5053319;28;20037;-65
2021/08/22 08:47:13;;;;;;;4.07;1.80;;;28.30;45.20;;;;;;5053875;28;20077;-66
2021/08/22 08:49:50;;;;;;;6.05;2.95;;;28.50;44.60;;;;;;5053792;28;20037;-65
2021/08/22 08:52:23;;;;;;;5.63;2.78;;;28.40;44.50;;;;;;5053490;28;20476;-65
2021/08/22 08:55:17;;;;;;;3.85;1.80;;;28.50;43.90;;;;;;5053475;28;20041;-66
2021/08/22 08:57:43;;;;;;;3.10;1.45;;;28.70;43.90;;;;;;5053553;28;20052;-65
2021/08/22 09:00:15;;;;;;;3.22;1.63;;;28.80;44.50;;;;;;5053065;28;20056;-65
2021/08/22 09:02:41;;;;;;;2.70;1.30;;;29.30;43.10;;;;;;5053325;28;20095;-65
2021/08/22 09:05:11;;;;;;;4.55;1.83;;;29.50;43.80;;;;;;5053261;28;20096;-66
2021/08/22 09:07:58;;;;;;;6.20;3.05;;;29.80;42.60;;;;;;5053337;28;20051;-65
2021/08/22 09:10:48;;;;;;;4.45;2.30;;;30.10;40.90;;;;;;5052006;28;20025;-65
2021/08/22 09:13:32;;;;;;;4.05;1.80;;;30.10;41.50;;;;;;5053124;28;20037;-65
2021/08/22 09:16:09;;;;;;;5.38;2.35;;;30.20;41.70;;;;;;5053241;28;20498;-66
2021/08/22 09:18:57;;;;;;;3.70;1.90;;;30.40;41.60;;;;;;5053117;28;20029;-65
2021/08/22 09:22:00;;;;;;;5.05;2.10;;;30.70;40.00;;;;;;5053056;28;20017;-66
2021/08/22 09:24:31;;;;;;;4.57;1.75;;;30.70;40.20;;;;;;5052917;28;20021;-65
2021/08/22 09:27:15;;;;;;;;;;;30.90;40.40;;;;;;5053342;28;20484;-65
2021/08/22 09:29:59;;;;;;;3.75;1.40;;;30.80;40.40;;;;;;5053087;28;20337;-66
2021/08/22 09:33:02;;;;;;;3.33;1.48;;;31.20;40.40;;;;;;5052747;28;20082;-66
2021/08/22 09:36:16;;;;;;;4.57;2.10;;;31.50;39.40;;;;;;5053165;28;20036;-66
2021/08/22 09:39:19;;;;;;;3.92;1.80;;;31.70;39.10;;;;;;5015531;28;20049;-65
2021/08/22 09:42:22;;;;;;;4.60;2.05;;;31.70;39.10;;;;;;5053043;28;20551;-66
2021/08/22 09:45:24;;;;;;;3.40;1.73;;;32.00;38.70;;;;;;5052476;28;20025;-66
2021/08/22 09:48:11;;;;;;;4.00;1.60;;;32.10;37.70;;;;;;5052489;28;20021;-65
2021/08/22 09:51:12;;;;;;;3.67;1.40;;;32.10;38.10;;;;;;5051286;28;20049;-65
2021/08/22 09:53:38;;;;;;;3.00;1.45;;;32.20;38.00;;;;;;5043017;28;20059;-66
2021/08/22 09:56:19;;;;;;;4.55;1.75;;;32.30;37.80;;;;;;5052355;28;20033;-65
2021/08/22 09:58:50;;;;;;;3.78;1.70;;;32.60;37.60;;;;;;5052468;28;20035;-65
2021/08/22 10:01:25;;;;;;;2.75;1.40;;;32.90;37.10;;;;;;5052262;28;20388;-66
2021/08/22 10:04:28;;;;;;;3.53;1.42;;;33.10;37.00;;;;;;5052267;28;20053;-66
2021/08/22 10:07:28;;;;;;;4.35;1.90;;;33.50;37.10;;;;;;5052316;28;20036;-66
2021/08/22 10:10:13;;;;;;;7.55;2.53;;;33.70;35.60;;;;;;5052183;28;20443;-65
2021/08/22 10:12:39;;;;;;;4.78;2.35;;;33.70;35.40;;;;;;5052017;28;20031;-67
2021/08/22 10:15:05;;;;;;;3.22;1.50;;;33.60;35.10;;;;;;5052183;28;20107;-67
2021/08/22 10:17:32;;;;;;;4.60;1.73;;;33.60;34.80;;;;;;5051967;28;20491;-66
2021/08/22 10:19:57;;;;;;;3.15;1.42;;;33.60;35.30;;;;;;5051947;28;20053;-66
2021/08/22 10:22:36;;;;;;;2.53;1.20;;;33.80;35.00;;;;;;5052086;28;20055;-66
2021/08/22 10:25:13;;;;;;;4.22;1.30;;;34.00;34.50;;;;;;5051794;28;20028;-66
2021/08/22 10:27:47;;;;;;;4.15;1.38;;;34.00;34.60;;;;;;5051921;28;20419;-67
2021/08/22 10:30:14;;;;;;;2.83;1.27;;;33.90;35.00;;;;;;5050387;28;20024;-66
2021/08/22 10:33:03;;;;;;;2.10;1.10;;;34.10;35.10;;;;;;5051527;28;20020;-66
2021/08/22 10:35:30;;;;;;;2.88;1.10;;;34.40;35.00;;;;;;5048347;28;20068;-64
2021/08/22 10:37:55;;;;;;;2.70;1.00;;;34.60;34.40;;;;;;5051509;28;20021;-66
2021/08/22 10:40:28;;;;;;;4.60;2.00;;;34.60;34.40;;;;;;5051693;28;20400;-65
2021/08/22 10:43:07;;;;;;;3.75;1.80;;;34.80;33.60;;;;;;5050172;28;20040;-68
2021/08/22 10:45:44;;;;;;;4.20;2.10;;;34.60;33.90;;;;;;5051697;28;20097;-66
2021/08/22 10:48:22;;;;;;;6.35;2.83;;;34.70;33.80;;;;;;5051558;28;20031;-66
2021/08/22 10:50:59;;;;;;;3.72;1.75;;;34.70;33.50;;;;;;5051951;28;20413;-67
2021/08/22 10:53:30;;;;;;;2.90;1.42;;;34.70;34.10;;;;;;5051237;28;20508;-66
2021/08/22 10:55:56;;;;;;;2.40;1.10;;;34.90;33.90;;;;;;5051456;28;20107;-66
2021/08/22 10:58:59;;;;;;;2.40;0.93;;;35.10;33.70;;;;;;5051346;28;20290;-65
2021/08/22 11:01:26;;;;;;;2.25;0.95;;;35.40;33.70;;;;;;5051964;28;20021;-66
2021/08/22 11:04:04;;;;;;;4.10;1.10;;;35.50;33.90;;;;;;5051084;28;20033;-66
2021/08/22 11:06:29;;;;;;;3.22;1.00;;;35.60;33.50;;;;;;5049049;28;20388;-65
2021/08/22 11:08:55;;;;;;;1.58;0.93;;;35.90;33.10;;;;;;5047610;28;20029;-65
2021/08/22 11:11:20;;;;;;;2.75;1.00;;;35.90;32.90;;;;;;5049010;28;20082;-66
2021/08/22 11:14:00;;;;;;;1.23;0.82;;;35.70;32.80;;;;;;5048842;28;20048;-66
2021/08/22 11:16:58;;;;;;;1.63;0.90;;;35.80;33.50;;;;;;5047294;28;20105;-65
2021/08/22 11:19:24;;;;;;;1.88;0.95;;;36.10;33.70;;;;;;5028588;28;20049;-66
2021/08/22 11:21:50;;;;;;;2.47;1.00;;;36.60;32.50;;;;;;5049827;28;20073;-67
2021/08/22 11:24:16;;;;;;;1.52;0.80;;;36.50;32.60;;;;;;5050871;28;20025;-67
2021/08/22 11:26:42;;;;;;;2.13;0.85;;;36.50;32.50;;;;;;5051035;28;20033;-68
2021/08/22 11:29:08;;;;;;;3.33;0.80;;;36.60;31.90;;;;;;5051205;28;20104;-65
2021/08/22 11:31:35;;;;;;;1.45;0.90;;;36.60;32.20;;;;;;5050903;28;20103;-66
2021/08/22 11:34:14;;;;;;;2.72;1.00;;;36.80;32.60;;;;;;5050949;28;20422;-65
2021/08/22 11:36:41;;;;;;;1.80;0.80;;;37.10;31.70;;;;;;5051057;28;20048;-66
2021/08/22 11:39:12;;;;;;;1.67;0.80;;;37.20;31.80;;;;;;5049694;28;20025;-65
2021/08/22 11:41:42;;;;;;;1.48;0.88;;;37.20;31.40;;;;;;5051012;28;20053;-65
2021/08/22 11:44:08;;;;;;;2.65;0.80;;;37.10;31.80;;;;;;5049908;28;20037;-65
2021/08/22 11:46:34;;;;;;;2.55;1.10;;;37.20;32.00;;;;;;5050742;28;20036;-66
2021/08/22 11:49:01;;;;;;;1.95;1.00;;;37.30;31.70;;;;;;5050989;28;20075;-65
2021/08/22 11:51:27;;;;;;;2.22;0.80;;;37.30;31.50;;;;;;5050744;28;20044;-67
2021/08/22 11:53:53;;;;;;;2.55;0.90;;;37.30;31.90;;;;;;5050393;28;20048;-66
2021/08/22 11:56:25;;;;;;;1.80;0.93;;;37.60;31.60;;;;;;5050864;28;20451;-66
2021/08/22 11:58:51;;;;;;;3.05;0.88;;;37.80;30.70;;;;;;5050833;28;20036;-66
2021/08/22 12:01:21;;;;;;;2.33;1.00;;;37.90;30.70;;;;;;5050799;28;20021;-65
2021/08/22 12:04:02;;;;;;;1.88;0.93;;;38.00;30.60;;;;;;5050819;28;20024;-66
2021/08/22 12:06:30;;;;;;;2.70;1.10;;;38.00;30.30;;;;;;5050397;28;20021;-65
2021/08/22 12:08:56;;;;;;;2.58;0.93;;;37.90;30.70;;;;;;5050845;28;20100;-65
2021/08/22 12:11:23;;;;;;;1.80;0.90;;;38.10;30.90;;;;;;5050716;28;20021;-65
2021/08/22 12:13:50;;;;;;;2.08;1.00;;;38.20;30.60;;;;;;5050672;28;20028;-66
2021/08/22 12:16:26;;;;;;;1.30;0.80;;;38.40;30.60;;;;;;5049211;28;20053;-66
2021/08/22 12:18:53;;;;;;;2.78;1.05;;;38.70;30.60;;;;;;5053383;28;20045;-66
2021/08/22 12:21:21;;;;;;;2.97;1.00;;;39.00;30.60;;;;;;5054612;28;20027;-65
2021/08/22 12:23:53;;;;;;;3.80;1.00;;;39.20;30.00;;;;;;5055332;28;20029;-66
2021/08/22 12:26:25;;;;;;;1.92;0.93;;;39.30;30.00;;;;;;5054597;28;20025;-66
2021/08/22 12:28:55;;;;;;;2.22;1.00;;;39.50;30.00;;;;;;5054810;28;20476;-66
2021/08/22 12:31:30;;;;;;;2.10;0.90;;;39.70;29.20;;;;;;5054730;28;20048;-65
2021/08/22 12:33:56;;;;;;;1.80;0.90;;;39.50;29.00;;;;;;5054627;28;20052;-66
2021/08/22 12:36:32;;;;;;;2.28;1.17;;;39.30;29.10;;;;;;5054174;28;20106;-66
2021/08/22 12:38:59;;;;;;;2.55;0.95;;;39.30;29.40;;;;;;5054101;28;20033;-66
2021/08/22 12:41:38;;;;;;;1.73;0.85;;;39.40;29.40;;;;;;5053966;28;20040;-66
2021/08/22 12:44:07;;;;;;;1.63;0.85;;;39.50;29.10;;;;;;5053790;28;20024;-67
2021/08/22 12:46:34;;;;;;;2.58;1.00;;;39.50;29.00;;;;;;5054178;28;20021;-66
2021/08/22 12:49:00;;;;;;;1.25;0.73;;;39.50;29.10;;;;;;5054153;28;20106;-66
2021/08/22 12:51:27;;;;;;;1.45;0.80;;;39.50;28.70;;;;;;5054202;28;20031;-66
2021/08/22 12:53:54;;;;;;;1.58;0.82;;;39.60;29.00;;;;;;5053608;28;20385;-66
2021/08/22 12:56:21;;;;;;;3.13;0.90;;;39.70;29.00;;;;;;5053693;28;20017;-66